sensor_id;sensor_type;location;lat;lon;timestamp;pressure;altitude;pressure_sealevel;temperature
76901;BMP280;65859;43.020;25.096;2023-04-01T00:01:05;98361.09;;;7.64
76901;BMP280;65859;43.020;25.096;2023-04-01T00:03:32;98361.72;;;7.70
76901;BMP280;65859;43.020;25.096;2023-04-01T00:06:00;98364.41;;;7.82
76901;BMP280;65859;43.020;25.096;2023-04-01T00:08:27;98356.50;;;7.94
76901;BMP280;65859;43.020;25.096;2023-04-01T00:10:53;98355.97;;;7.89
76901;BMP280;65859;43.020;25.096;2023-04-01T00:13:21;98353.44;;;7.71
76901;BMP280;65859;43.020;25.096;2023-04-01T00:15:48;98351.06;;;8.32
76901;BMP280;65859;43.020;25.096;2023-04-01T00:18:15;98341.41;;;8.03
76901;BMP280;65859;43.020;25.096;2023-04-01T00:20:46;98337.59;;;7.71
76901;BMP280;65859;43.020;25.096;2023-04-01T00:23:14;98345.59;;;7.63
76901;BMP280;65859;43.020;25.096;2023-04-01T00:25:43;98352.56;;;7.67
76901;BMP280;65859;43.020;25.096;2023-04-01T00:28:09;98359.56;;;7.63
76901;BMP280;65859;43.020;25.096;2023-04-01T00:30:37;98344.78;;;7.71
76901;BMP280;65859;43.020;25.096;2023-04-01T00:33:03;98337.97;;;7.61
76901;BMP280;65859;43.020;25.096;2023-04-01T00:35:29;98333.47;;;7.41
76901;BMP280;65859;43.020;25.096;2023-04-01T00:37:56;98323.19;;;7.48
76901;BMP280;65859;43.020;25.096;2023-04-01T00:40:35;98331.28;;;7.64
76901;BMP280;65859;43.020;25.096;2023-04-01T00:43:03;98325.38;;;7.67
76901;BMP280;65859;43.020;25.096;2023-04-01T00:45:37;98319.31;;;7.45
76901;BMP280;65859;43.020;25.096;2023-04-01T00:48:11;98325.59;;;7.32
76901;BMP280;65859;43.020;25.096;2023-04-01T00:50:38;98324.78;;;7.40
76901;BMP280;65859;43.020;25.096;2023-04-01T00:53:07;98327.44;;;7.40
76901;BMP280;65859;43.020;25.096;2023-04-01T00:55:36;98325.56;;;7.41
76901;BMP280;65859;43.020;25.096;2023-04-01T00:58:07;98313.06;;;7.50
76901;BMP280;65859;43.020;25.096;2023-04-01T01:00:35;98308.63;;;7.63
76901;BMP280;65859;43.020;25.096;2023-04-01T01:03:02;98315.13;;;7.86
76901;BMP280;65859;43.020;25.096;2023-04-01T01:05:42;98306.56;;;7.89
76901;BMP280;65859;43.020;25.096;2023-04-01T01:10:40;98308.25;;;7.52
76901;BMP280;65859;43.020;25.096;2023-04-01T01:13:21;98302.97;;;7.73
76901;BMP280;65859;43.020;25.096;2023-04-01T01:18:56;98304.50;;;7.95
76901;BMP280;65859;43.020;25.096;2023-04-01T01:21:39;98303.44;;;7.87
76901;BMP280;65859;43.020;25.096;2023-04-01T01:27:11;98297.03;;;8.54
76901;BMP280;65859;43.020;25.096;2023-04-01T01:35:31;98287.94;;;8.19
76901;BMP280;65859;43.020;25.096;2023-04-01T01:38:08;98297.69;;;7.73
76901;BMP280;65859;43.020;25.096;2023-04-01T01:40:37;98288.66;;;7.11
76901;BMP280;65859;43.020;25.096;2023-04-01T01:43:08;98281.31;;;7.38
76901;BMP280;65859;43.020;25.096;2023-04-01T01:45:39;98289.88;;;7.14
76901;BMP280;65859;43.020;25.096;2023-04-01T01:48:07;98273.47;;;7.92
76901;BMP280;65859;43.020;25.096;2023-04-01T01:50:35;98285.75;;;8.21
76901;BMP280;65859;43.020;25.096;2023-04-01T01:53:09;98280.00;;;8.06
76901;BMP280;65859;43.020;25.096;2023-04-01T01:55:37;98277.84;;;8.21
76901;BMP280;65859;43.020;25.096;2023-04-01T02:01:04;98268.47;;;7.36
76901;BMP280;65859;43.020;25.096;2023-04-01T02:03:35;98256.31;;;7.23
76901;BMP280;65859;43.020;25.096;2023-04-01T02:06:06;98261.13;;;7.21
76901;BMP280;65859;43.020;25.096;2023-04-01T02:09:11;98257.03;;;7.02
76901;BMP280;65859;43.020;25.096;2023-04-01T02:11:46;98261.94;;;6.92
76901;BMP280;65859;43.020;25.096;2023-04-01T02:14:35;98262.03;;;7.25
76901;BMP280;65859;43.020;25.096;2023-04-01T02:17:22;98253.94;;;7.30
76901;BMP280;65859;43.020;25.096;2023-04-01T02:22:22;98254.50;;;7.15
76901;BMP280;65859;43.020;25.096;2023-04-01T02:24:52;98252.25;;;7.46
76901;BMP280;65859;43.020;25.096;2023-04-01T02:27:20;98250.69;;;7.66
76901;BMP280;65859;43.020;25.096;2023-04-01T02:29:47;98255.72;;;7.38
76901;BMP280;65859;43.020;25.096;2023-04-01T02:32:15;98249.16;;;7.65
76901;BMP280;65859;43.020;25.096;2023-04-01T02:34:43;98247.44;;;7.07
76901;BMP280;65859;43.020;25.096;2023-04-01T02:37:10;98250.28;;;6.93
76901;BMP280;65859;43.020;25.096;2023-04-01T02:39:37;98248.00;;;7.54
76901;BMP280;65859;43.020;25.096;2023-04-01T02:42:03;98248.19;;;7.28
76901;BMP280;65859;43.020;25.096;2023-04-01T02:44:30;98249.44;;;7.01
76901;BMP280;65859;43.020;25.096;2023-04-01T02:46:56;98241.59;;;6.92
76901;BMP280;65859;43.020;25.096;2023-04-01T02:49:22;98241.50;;;6.80
76901;BMP280;65859;43.020;25.096;2023-04-01T02:51:49;98233.28;;;6.82
76901;BMP280;65859;43.020;25.096;2023-04-01T02:54:15;98231.78;;;6.72
76901;BMP280;65859;43.020;25.096;2023-04-01T02:56:41;98225.72;;;7.01
76901;BMP280;65859;43.020;25.096;2023-04-01T02:59:07;98229.06;;;7.52
76901;BMP280;65859;43.020;25.096;2023-04-01T03:01:34;98219.34;;;6.81
76901;BMP280;65859;43.020;25.096;2023-04-01T03:04:01;98221.59;;;6.91
76901;BMP280;65859;43.020;25.096;2023-04-01T03:06:28;98211.56;;;7.05
76901;BMP280;65859;43.020;25.096;2023-04-01T03:08:54;98226.34;;;6.77
76901;BMP280;65859;43.020;25.096;2023-04-01T03:11:21;98212.00;;;6.57
76901;BMP280;65859;43.020;25.096;2023-04-01T03:13:47;98213.13;;;6.47
76901;BMP280;65859;43.020;25.096;2023-04-01T03:16:14;98215.06;;;6.68
76901;BMP280;65859;43.020;25.096;2023-04-01T03:18:41;98206.31;;;6.85
76901;BMP280;65859;43.020;25.096;2023-04-01T03:21:19;98211.88;;;6.53
76901;BMP280;65859;43.020;25.096;2023-04-01T03:23:46;98214.16;;;6.64
76901;BMP280;65859;43.020;25.096;2023-04-01T03:26:12;98219.09;;;6.27
76901;BMP280;65859;43.020;25.096;2023-04-01T03:28:40;98219.50;;;6.46
76901;BMP280;65859;43.020;25.096;2023-04-01T03:31:06;98220.63;;;6.37
76901;BMP280;65859;43.020;25.096;2023-04-01T03:33:33;98222.84;;;6.17
76901;BMP280;65859;43.020;25.096;2023-04-01T03:36:00;98208.66;;;6.77
76901;BMP280;65859;43.020;25.096;2023-04-01T03:38:26;98202.22;;;6.28
76901;BMP280;65859;43.020;25.096;2023-04-01T03:40:53;98209.28;;;6.45
76901;BMP280;65859;43.020;25.096;2023-04-01T03:43:19;98204.72;;;6.54
76901;BMP280;65859;43.020;25.096;2023-04-01T03:45:51;98210.19;;;6.49
76901;BMP280;65859;43.020;25.096;2023-04-01T03:48:18;98203.19;;;7.24
76901;BMP280;65859;43.020;25.096;2023-04-01T03:50:44;98196.91;;;7.38
76901;BMP280;65859;43.020;25.096;2023-04-01T03:53:11;98192.16;;;7.64
76901;BMP280;65859;43.020;25.096;2023-04-01T03:55:38;98204.75;;;7.79
76901;BMP280;65859;43.020;25.096;2023-04-01T03:58:06;98206.97;;;7.90
76901;BMP280;65859;43.020;25.096;2023-04-01T04:00:32;98207.50;;;7.83
76901;BMP280;65859;43.020;25.096;2023-04-01T04:02:59;98210.78;;;7.68
76901;BMP280;65859;43.020;25.096;2023-04-01T04:05:26;98214.47;;;7.88
76901;BMP280;65859;43.020;25.096;2023-04-01T04:07:54;98206.84;;;7.74
76901;BMP280;65859;43.020;25.096;2023-04-01T04:10:21;98207.63;;;6.70
76901;BMP280;65859;43.020;25.096;2023-04-01T04:12:50;98219.34;;;6.43
76901;BMP280;65859;43.020;25.096;2023-04-01T04:15:17;98210.69;;;6.42
76901;BMP280;65859;43.020;25.096;2023-04-01T04:17:45;98206.50;;;6.41
76901;BMP280;65859;43.020;25.096;2023-04-01T04:20:11;98208.16;;;6.84
76901;BMP280;65859;43.020;25.096;2023-04-01T04:22:38;98196.09;;;7.25
76901;BMP280;65859;43.020;25.096;2023-04-01T04:25:05;98197.13;;;7.66
76901;BMP280;65859;43.020;25.096;2023-04-01T04:27:31;98193.78;;;7.90
76901;BMP280;65859;43.020;25.096;2023-04-01T04:29:57;98193.50;;;8.03
76901;BMP280;65859;43.020;25.096;2023-04-01T04:32:24;98208.28;;;7.83
76901;BMP280;65859;43.020;25.096;2023-04-01T04:34:50;98205.72;;;7.00
76901;BMP280;65859;43.020;25.096;2023-04-01T04:37:16;98204.44;;;7.48
76901;BMP280;65859;43.020;25.096;2023-04-01T04:39:44;98198.75;;;7.91
76901;BMP280;65859;43.020;25.096;2023-04-01T04:42:10;98191.69;;;7.95
76901;BMP280;65859;43.020;25.096;2023-04-01T04:44:37;98188.59;;;7.81
76901;BMP280;65859;43.020;25.096;2023-04-01T04:47:03;98184.44;;;7.92
76901;BMP280;65859;43.020;25.096;2023-04-01T04:49:29;98199.91;;;7.48
76901;BMP280;65859;43.020;25.096;2023-04-01T04:51:56;98195.75;;;7.05
76901;BMP280;65859;43.020;25.096;2023-04-01T04:54:22;98196.97;;;6.87
76901;BMP280;65859;43.020;25.096;2023-04-01T04:56:50;98189.31;;;6.73
76901;BMP280;65859;43.020;25.096;2023-04-01T04:59:17;98181.88;;;6.96
76901;BMP280;65859;43.020;25.096;2023-04-01T05:01:43;98181.53;;;6.77
76901;BMP280;65859;43.020;25.096;2023-04-01T05:04:09;98177.56;;;7.67
76901;BMP280;65859;43.020;25.096;2023-04-01T05:06:36;98179.81;;;7.89
76901;BMP280;65859;43.020;25.096;2023-04-01T05:09:03;98184.25;;;8.22
76901;BMP280;65859;43.020;25.096;2023-04-01T05:11:30;98179.19;;;8.29
76901;BMP280;65859;43.020;25.096;2023-04-01T05:13:56;98177.88;;;8.23
76901;BMP280;65859;43.020;25.096;2023-04-01T05:16:23;98181.09;;;7.83
76901;BMP280;65859;43.020;25.096;2023-04-01T05:18:49;98181.16;;;8.07
76901;BMP280;65859;43.020;25.096;2023-04-01T05:21:16;98177.44;;;8.33
76901;BMP280;65859;43.020;25.096;2023-04-01T05:23:43;98178.75;;;8.51
76901;BMP280;65859;43.020;25.096;2023-04-01T05:26:12;98169.84;;;8.31
76901;BMP280;65859;43.020;25.096;2023-04-01T05:28:40;98170.59;;;8.56
76901;BMP280;65859;43.020;25.096;2023-04-01T05:31:07;98165.19;;;8.53
76901;BMP280;65859;43.020;25.096;2023-04-01T05:33:33;98164.94;;;8.70
76901;BMP280;65859;43.020;25.096;2023-04-01T05:36:26;98155.44;;;8.81
76901;BMP280;65859;43.020;25.096;2023-04-01T05:38:55;98162.53;;;8.53
76901;BMP280;65859;43.020;25.096;2023-04-01T05:41:22;98152.09;;;8.20
76901;BMP280;65859;43.020;25.096;2023-04-01T05:43:49;98165.59;;;7.94
76901;BMP280;65859;43.020;25.096;2023-04-01T05:46:16;98166.06;;;7.83
76901;BMP280;65859;43.020;25.096;2023-04-01T05:48:42;98163.97;;;7.89
76901;BMP280;65859;43.020;25.096;2023-04-01T05:51:14;98161.47;;;8.29
76901;BMP280;65859;43.020;25.096;2023-04-01T05:53:41;98160.25;;;8.02
76901;BMP280;65859;43.020;25.096;2023-04-01T05:56:07;98161.47;;;8.29
76901;BMP280;65859;43.020;25.096;2023-04-01T05:58:36;98157.03;;;7.84
76901;BMP280;65859;43.020;25.096;2023-04-01T06:01:08;98153.19;;;8.19
76901;BMP280;65859;43.020;25.096;2023-04-01T06:03:35;98145.13;;;8.64
76901;BMP280;65859;43.020;25.096;2023-04-01T06:06:02;98143.22;;;8.77
76901;BMP280;65859;43.020;25.096;2023-04-01T06:08:31;98156.38;;;8.00
76901;BMP280;65859;43.020;25.096;2023-04-01T06:11:23;98151.88;;;7.88
76901;BMP280;65859;43.020;25.096;2023-04-01T06:25:24;98158.28;;;8.11
76901;BMP280;65859;43.020;25.096;2023-04-01T06:30:44;98122.78;;;8.49
76901;BMP280;65859;43.020;25.096;2023-04-01T06:41:23;98112.81;;;8.83
76901;BMP280;65859;43.020;25.096;2023-04-01T06:46:51;98106.13;;;9.01
76901;BMP280;65859;43.020;25.096;2023-04-01T06:58:06;98085.22;;;9.12
76901;BMP280;65859;43.020;25.096;2023-04-01T07:00:44;98108.41;;;10.10
76901;BMP280;65859;43.020;25.096;2023-04-01T07:05:58;98109.66;;;10.16
76901;BMP280;65859;43.020;25.096;2023-04-01T07:08:27;98088.00;;;9.94
76901;BMP280;65859;43.020;25.096;2023-04-01T07:11:04;98078.00;;;9.88
76901;BMP280;65859;43.020;25.096;2023-04-01T07:13:53;98073.88;;;10.06
76901;BMP280;65859;43.020;25.096;2023-04-01T07:16:30;98071.97;;;10.61
76901;BMP280;65859;43.020;25.096;2023-04-01T07:19:16;98061.06;;;10.86
76901;BMP280;65859;43.020;25.096;2023-04-01T07:21:58;98065.34;;;10.71
76901;BMP280;65859;43.020;25.096;2023-04-01T07:24:35;98061.66;;;10.56
76901;BMP280;65859;43.020;25.096;2023-04-01T07:27:03;98060.38;;;10.50
76901;BMP280;65859;43.020;25.096;2023-04-01T07:29:31;98048.38;;;10.37
76901;BMP280;65859;43.020;25.096;2023-04-01T07:38:11;98004.66;;;10.89
76901;BMP280;65859;43.020;25.096;2023-04-01T07:40:55;98017.63;;;10.94
76901;BMP280;65859;43.020;25.096;2023-04-01T07:48:52;98043.66;;;11.57
76901;BMP280;65859;43.020;25.096;2023-04-01T07:54:16;98041.09;;;12.51
76901;BMP280;65859;43.020;25.096;2023-04-01T08:05:25;98035.47;;;14.28
76901;BMP280;65859;43.020;25.096;2023-04-01T08:22:03;97999.81;;;13.15
76901;BMP280;65859;43.020;25.096;2023-04-01T08:24:47;97992.69;;;13.30
76901;BMP280;65859;43.020;25.096;2023-04-01T08:27:38;97987.25;;;13.78
76901;BMP280;65859;43.020;25.096;2023-04-01T08:33:21;97976.41;;;14.65
76901;BMP280;65859;43.020;25.096;2023-04-01T08:36:01;97971.38;;;14.17
76901;BMP280;65859;43.020;25.096;2023-04-01T08:38:55;97971.56;;;13.62
76901;BMP280;65859;43.020;25.096;2023-04-01T08:44:30;97975.09;;;13.84
76901;BMP280;65859;43.020;25.096;2023-04-01T08:55:44;97963.38;;;15.27
76901;BMP280;65859;43.020;25.096;2023-04-01T09:01:14;98002.75;;;19.46
76901;BMP280;65859;43.020;25.096;2023-04-01T09:09:27;97940.53;;;16.55
76901;BMP280;65859;43.020;25.096;2023-04-01T09:15:35;97923.69;;;18.61
76901;BMP280;65859;43.020;25.096;2023-04-01T09:23:57;97905.69;;;16.59
76901;BMP280;65859;43.020;25.096;2023-04-01T09:40:58;97898.03;;;15.43
76901;BMP280;65859;43.020;25.096;2023-04-01T09:44:08;97893.31;;;15.68
76901;BMP280;65859;43.020;25.096;2023-04-01T09:56:03;97842.38;;;17.10
76901;BMP280;65859;43.020;25.096;2023-04-01T10:36:55;97814.25;;;21.84
76901;BMP280;65859;43.020;25.096;2023-04-01T10:47:55;97800.84;;;20.69
76901;BMP280;65859;43.020;25.096;2023-04-01T10:56:43;97772.97;;;20.05
76901;BMP280;65859;43.020;25.096;2023-04-01T10:59:28;97754.84;;;20.35
76901;BMP280;65859;43.020;25.096;2023-04-01T11:24:39;97711.25;;;19.82
76901;BMP280;65859;43.020;25.096;2023-04-01T11:33:08;97688.69;;;20.59
76901;BMP280;65859;43.020;25.096;2023-04-01T11:38:49;97673.56;;;20.87
76901;BMP280;65859;43.020;25.096;2023-04-01T11:41:30;97674.44;;;20.71
76901;BMP280;65859;43.020;25.096;2023-04-01T11:44:15;97664.13;;;21.52
76901;BMP280;65859;43.020;25.096;2023-04-01T11:49:36;97651.84;;;21.03
76901;BMP280;65859;43.020;25.096;2023-04-01T11:55:41;97651.56;;;21.01
76901;BMP280;65859;43.020;25.096;2023-04-01T11:58:23;97643.94;;;21.22
76901;BMP280;65859;43.020;25.096;2023-04-01T12:01:25;97642.13;;;21.41
76901;BMP280;65859;43.020;25.096;2023-04-01T12:04:26;97628.81;;;21.24
76901;BMP280;65859;43.020;25.096;2023-04-01T12:07:17;97629.31;;;21.10
76901;BMP280;65859;43.020;25.096;2023-04-01T12:09:48;97631.16;;;21.00
76901;BMP280;65859;43.020;25.096;2023-04-01T12:12:40;97625.00;;;21.00
76901;BMP280;65859;43.020;25.096;2023-04-01T12:15:16;97627.22;;;21.27
76901;BMP280;65859;43.020;25.096;2023-04-01T12:17:56;97624.22;;;20.78
76901;BMP280;65859;43.020;25.096;2023-04-01T12:20:55;97629.38;;;20.85
76901;BMP280;65859;43.020;25.096;2023-04-01T12:24:18;97634.47;;;20.32
76901;BMP280;65859;43.020;25.096;2023-04-01T12:40:40;97621.34;;;19.50
76901;BMP280;65859;43.020;25.096;2023-04-01T12:46:38;97614.41;;;19.08
76901;BMP280;65859;43.020;25.096;2023-04-01T12:49:11;97623.88;;;18.96
76901;BMP280;65859;43.020;25.096;2023-04-01T12:52:45;97633.38;;;19.01
76901;BMP280;65859;43.020;25.096;2023-04-01T13:14:33;97631.75;;;18.18
76901;BMP280;65859;43.020;25.096;2023-04-01T13:17:13;97636.44;;;18.14
76901;BMP280;65859;43.020;25.096;2023-04-01T13:23:18;97647.78;;;18.02
76901;BMP280;65859;43.020;25.096;2023-04-01T13:26:18;97621.63;;;18.06
76901;BMP280;65859;43.020;25.096;2023-04-01T13:29:09;97629.16;;;17.95
76901;BMP280;65859;43.020;25.096;2023-04-01T13:40:02;97647.56;;;17.53
76901;BMP280;65859;43.020;25.096;2023-04-01T13:42:44;97660.78;;;17.41
76901;BMP280;65859;43.020;25.096;2023-04-01T13:45:19;97669.41;;;17.28
76901;BMP280;65859;43.020;25.096;2023-04-01T13:48:12;97691.03;;;17.18
76901;BMP280;65859;43.020;25.096;2023-04-01T14:08:10;97792.13;;;16.15
76901;BMP280;65859;43.020;25.096;2023-04-01T14:24:45;97947.03;;;14.43
76901;BMP280;65859;43.020;25.096;2023-04-01T14:38:51;97983.63;;;13.42
76901;BMP280;65859;43.020;25.096;2023-04-01T14:49:35;97920.50;;;13.46
76901;BMP280;65859;43.020;25.096;2023-04-01T14:52:30;97889.31;;;13.57
76901;BMP280;65859;43.020;25.096;2023-04-01T14:54:58;97840.97;;;13.58
76901;BMP280;65859;43.020;25.096;2023-04-01T14:57:30;97881.81;;;13.95
76901;BMP280;65859;43.020;25.096;2023-04-01T15:00:17;97882.47;;;13.59
76901;BMP280;65859;43.020;25.096;2023-04-01T15:03:07;97882.16;;;14.00
76901;BMP280;65859;43.020;25.096;2023-04-01T15:05:47;97870.34;;;13.87
76901;BMP280;65859;43.020;25.096;2023-04-01T15:08:18;97847.13;;;13.84
76901;BMP280;65859;43.020;25.096;2023-04-01T15:16:30;97807.81;;;13.52
76901;BMP280;65859;43.020;25.096;2023-04-01T15:27:14;97775.81;;;13.35
76901;BMP280;65859;43.020;25.096;2023-04-01T15:30:19;97763.22;;;13.28
76901;BMP280;65859;43.020;25.096;2023-04-01T15:36:00;97771.16;;;13.07
76901;BMP280;65859;43.020;25.096;2023-04-01T15:38:58;97759.81;;;13.31
76901;BMP280;65859;43.020;25.096;2023-04-01T15:55:12;97805.53;;;13.54
76901;BMP280;65859;43.020;25.096;2023-04-01T16:00:53;97800.84;;;13.16
76901;BMP280;65859;43.020;25.096;2023-04-01T16:03:39;97812.31;;;13.34
76901;BMP280;65859;43.020;25.096;2023-04-01T16:06:26;97810.13;;;13.57
76901;BMP280;65859;43.020;25.096;2023-04-01T16:08:58;97819.94;;;13.36
76901;BMP280;65859;43.020;25.096;2023-04-01T16:14:16;97839.41;;;13.50
76901;BMP280;65859;43.020;25.096;2023-04-01T16:17:08;97848.56;;;13.49
76901;BMP280;65859;43.020;25.096;2023-04-01T16:22:33;97834.97;;;12.96
76901;BMP280;65859;43.020;25.096;2023-04-01T16:25:14;97847.25;;;13.15
76901;BMP280;65859;43.020;25.096;2023-04-01T16:28:03;97852.94;;;13.10
76901;BMP280;65859;43.020;25.096;2023-04-01T16:30:37;97850.50;;;12.83
76901;BMP280;65859;43.020;25.096;2023-04-01T16:36:20;97859.41;;;13.16
76901;BMP280;65859;43.020;25.096;2023-04-01T16:41:49;97877.41;;;13.33
76901;BMP280;65859;43.020;25.096;2023-04-01T16:44:24;97868.91;;;13.10
76901;BMP280;65859;43.020;25.096;2023-04-01T16:47:05;97869.53;;;12.85
76901;BMP280;65859;43.020;25.096;2023-04-01T16:49:42;97845.47;;;12.71
76901;BMP280;65859;43.020;25.096;2023-04-01T16:52:13;97873.06;;;13.03
76901;BMP280;65859;43.020;25.096;2023-04-01T17:04:59;97860.03;;;12.84
76901;BMP280;65859;43.020;25.096;2023-04-01T17:24:49;97901.78;;;12.32
76901;BMP280;65859;43.020;25.096;2023-04-01T17:27:28;97915.97;;;12.43
76901;BMP280;65859;43.020;25.096;2023-04-01T17:35:18;97924.22;;;12.31
76901;BMP280;65859;43.020;25.096;2023-04-01T17:45:56;97985.53;;;12.45
76901;BMP280;65859;43.020;25.096;2023-04-01T17:48:44;98017.69;;;12.33
76901;BMP280;65859;43.020;25.096;2023-04-01T17:54:23;98059.28;;;12.18
76901;BMP280;65859;43.020;25.096;2023-04-01T18:03:12;98076.28;;;12.40
76901;BMP280;65859;43.020;25.096;2023-04-01T18:08:44;98094.63;;;12.49
76901;BMP280;65859;43.020;25.096;2023-04-01T18:14:31;98094.69;;;12.53
76901;BMP280;65859;43.020;25.096;2023-04-01T18:22:42;98080.16;;;12.46
76901;BMP280;65859;43.020;25.096;2023-04-01T18:25:19;98068.03;;;12.19
76901;BMP280;65859;43.020;25.096;2023-04-01T18:28:05;98069.63;;;12.24
76901;BMP280;65859;43.020;25.096;2023-04-01T18:30:33;98070.50;;;12.05
76901;BMP280;65859;43.020;25.096;2023-04-01T18:33:22;98066.88;;;11.86
76901;BMP280;65859;43.020;25.096;2023-04-01T18:39:07;98079.03;;;11.87
76901;BMP280;65859;43.020;25.096;2023-04-01T18:42:03;98089.03;;;11.71
76901;BMP280;65859;43.020;25.096;2023-04-01T18:44:48;98090.47;;;11.19
76901;BMP280;65859;43.020;25.096;2023-04-01T18:50:22;98092.25;;;11.12
76901;BMP280;65859;43.020;25.096;2023-04-01T18:56:11;98093.38;;;11.33
76901;BMP280;65859;43.020;25.096;2023-04-01T19:01:47;98080.50;;;11.13
76901;BMP280;65859;43.020;25.096;2023-04-01T19:04:23;98096.44;;;11.13
76901;BMP280;65859;43.020;25.096;2023-04-01T19:06:55;98100.47;;;11.49
76901;BMP280;65859;43.020;25.096;2023-04-01T19:09:33;98107.44;;;11.34
76901;BMP280;65859;43.020;25.096;2023-04-01T19:17:47;98114.56;;;12.06
76901;BMP280;65859;43.020;25.096;2023-04-01T19:20:47;98113.88;;;12.35
76901;BMP280;65859;43.020;25.096;2023-04-01T19:59:31;98109.59;;;11.74
76901;BMP280;65859;43.020;25.096;2023-04-01T20:04:56;98119.72;;;11.91
76901;BMP280;65859;43.020;25.096;2023-04-01T20:07:35;98125.41;;;11.67
76901;BMP280;65859;43.020;25.096;2023-04-01T20:13:40;98129.13;;;11.85
76901;BMP280;65859;43.020;25.096;2023-04-01T20:16:11;98134.56;;;11.70
76901;BMP280;65859;43.020;25.096;2023-04-01T20:18:57;98137.66;;;11.49
76901;BMP280;65859;43.020;25.096;2023-04-01T20:21:27;98137.22;;;11.47
76901;BMP280;65859;43.020;25.096;2023-04-01T20:24:17;98141.06;;;11.49
76901;BMP280;65859;43.020;25.096;2023-04-01T20:27:10;98131.13;;;11.69
76901;BMP280;65859;43.020;25.096;2023-04-01T20:35:49;98141.75;;;11.92
76901;BMP280;65859;43.020;25.096;2023-04-01T20:40:51;98154.22;;;12.14
76901;BMP280;65859;43.020;25.096;2023-04-01T20:51:25;98153.09;;;11.89
76901;BMP280;65859;43.020;25.096;2023-04-01T20:56:57;98156.47;;;11.63
76901;BMP280;65859;43.020;25.096;2023-04-01T21:15:36;98168.41;;;11.96
76901;BMP280;65859;43.020;25.096;2023-04-01T21:21:23;98170.22;;;12.18
76901;BMP280;65859;43.020;25.096;2023-04-01T21:26:34;98175.22;;;11.97
76901;BMP280;65859;43.020;25.096;2023-04-01T22:07:23;98223.84;;;11.74
76901;BMP280;65859;43.020;25.096;2023-04-01T22:10:10;98227.72;;;11.57
76901;BMP280;65859;43.020;25.096;2023-04-01T22:24:03;98223.81;;;11.32
76901;BMP280;65859;43.020;25.096;2023-04-01T22:32:15;98220.53;;;11.58
76901;BMP280;65859;43.020;25.096;2023-04-01T22:35:37;98217.00;;;11.73
76901;BMP280;65859;43.020;25.096;2023-04-01T22:41:19;98206.81;;;11.56
76901;BMP280;65859;43.020;25.096;2023-04-01T22:43:50;98207.63;;;11.37
76901;BMP280;65859;43.020;25.096;2023-04-01T22:49:53;98197.06;;;11.41
76901;BMP280;65859;43.020;25.096;2023-04-01T22:52:14;98187.97;;;11.42
76901;BMP280;65859;43.020;25.096;2023-04-01T22:54:46;98189.75;;;11.57
76901;BMP280;65859;43.020;25.096;2023-04-01T23:00:26;98198.16;;;11.40
76901;BMP280;65859;43.020;25.096;2023-04-01T23:03:23;98200.94;;;11.66
76901;BMP280;65859;43.020;25.096;2023-04-01T23:05:57;98197.84;;;11.64
76901;BMP280;65859;43.020;25.096;2023-04-01T23:08:42;98201.28;;;11.64
76901;BMP280;65859;43.020;25.096;2023-04-01T23:11:35;98202.31;;;11.60
76901;BMP280;65859;43.020;25.096;2023-04-01T23:27:50;98192.41;;;11.34
76901;BMP280;65859;43.020;25.096;2023-04-01T23:35:51;98199.13;;;11.51
76901;BMP280;65859;43.020;25.096;2023-04-01T23:38:22;98195.22;;;11.45
76901;BMP280;65859;43.020;25.096;2023-04-01T23:40:51;98190.44;;;11.31
76901;BMP280;65859;43.020;25.096;2023-04-01T23:43:38;98193.22;;;11.38
76901;BMP280;65859;43.020;25.096;2023-04-01T23:46:06;98194.50;;;11.25
76901;BMP280;65859;43.020;25.096;2023-04-01T23:48:44;98187.72;;;11.27
76901;BMP280;65859;43.020;25.096;2023-04-01T23:51:27;98190.50;;;11.34
76901;BMP280;65859;43.020;25.096;2023-04-01T23:54:13;98184.06;;;11.35
76901;BMP280;65859;43.020;25.096;2023-04-01T23:56:50;98187.13;;;11.38
76901;BMP280;65859;43.020;25.096;2023-04-01T23:59:37;98192.31;;;11.50
